sensor_id;sensor_type;location;lat;lon;timestamp;P1;durP1;ratioP1;P2;durP2;ratioP2
17253;SDS011;32542;52.832;13.816;2022-12-11T00:00:09;10.73;;;7.43;;
17253;SDS011;32542;52.832;13.816;2022-12-11T00:03:13;12.13;;;7.15;;
17253;SDS011;32542;52.832;13.816;2022-12-11T00:06:17;15.13;;;7.43;;
17253;SDS011;32542;52.832;13.816;2022-12-11T00:09:22;10.80;;;7.03;;
17253;SDS011;32542;52.832;13.816;2022-12-11T00:12:25;13.63;;;7.53;;
17253;SDS011;32542;52.832;13.816;2022-12-11T00:15:30;10.68;;;6.88;;
17253;SDS011;32542;52.832;13.816;2022-12-11T00:18:33;11.30;;;6.55;;
17253;SDS011;32542;52.832;13.816;2022-12-11T00:21:36;10.43;;;6.45;;
17253;SDS011;32542;52.832;13.816;2022-12-11T00:24:39;12.32;;;7.00;;
17253;SDS011;32542;52.832;13.816;2022-12-11T00:27:44;12.80;;;6.95;;
17253;SDS011;32542;52.832;13.816;2022-12-11T00:30:49;9.85;;;6.60;;
17253;SDS011;32542;52.832;13.816;2022-12-11T00:33:52;11.38;;;6.65;;
17253;SDS011;32542;52.832;13.816;2022-12-11T00:36:55;11.57;;;7.15;;
17253;SDS011;32542;52.832;13.816;2022-12-11T00:39:59;8.80;;;5.80;;
17253;SDS011;32542;52.832;13.816;2022-12-11T00:43:02;9.75;;;6.35;;
17253;SDS011;32542;52.832;13.816;2022-12-11T00:46:07;13.18;;;7.05;;
17253;SDS011;32542;52.832;13.816;2022-12-11T00:49:10;10.15;;;6.85;;
17253;SDS011;32542;52.832;13.816;2022-12-11T00:52:13;10.52;;;6.72;;
17253;SDS011;32542;52.832;13.816;2022-12-11T00:55:18;12.07;;;6.32;;
17253;SDS011;32542;52.832;13.816;2022-12-11T00:58:21;8.98;;;6.30;;
17253;SDS011;32542;52.832;13.816;2022-12-11T01:01:26;9.48;;;6.72;;
17253;SDS011;32542;52.832;13.816;2022-12-11T01:04:29;9.30;;;6.40;;
17253;SDS011;32542;52.832;13.816;2022-12-11T01:07:32;9.35;;;5.75;;
17253;SDS011;32542;52.832;13.816;2022-12-11T01:10:35;8.48;;;5.90;;
17253;SDS011;32542;52.832;13.816;2022-12-11T01:13:39;8.73;;;5.70;;
17253;SDS011;32542;52.832;13.816;2022-12-11T01:16:44;10.30;;;6.68;;
17253;SDS011;32542;52.832;13.816;2022-12-11T01:19:47;9.52;;;6.22;;
17253;SDS011;32542;52.832;13.816;2022-12-11T01:22:50;9.65;;;6.22;;
17253;SDS011;32542;52.832;13.816;2022-12-11T01:25:54;9.95;;;6.47;;
17253;SDS011;32542;52.832;13.816;2022-12-11T01:28:57;8.93;;;6.13;;
17253;SDS011;32542;52.832;13.816;2022-12-11T01:32:02;9.20;;;6.30;;
17253;SDS011;32542;52.832;13.816;2022-12-11T01:35:05;8.75;;;5.78;;
17253;SDS011;32542;52.832;13.816;2022-12-11T01:38:10;9.50;;;6.38;;
17253;SDS011;32542;52.832;13.816;2022-12-11T01:41:13;10.55;;;6.20;;
17253;SDS011;32542;52.832;13.816;2022-12-11T01:48:00;9.20;;;6.40;;
17253;SDS011;32542;52.832;13.816;2022-12-11T01:51:09;9.60;;;6.85;;
17253;SDS011;32542;52.832;13.816;2022-12-11T01:54:12;11.32;;;7.30;;
17253;SDS011;32542;52.832;13.816;2022-12-11T01:57:17;9.65;;;6.93;;
17253;SDS011;32542;52.832;13.816;2022-12-11T02:00:20;8.15;;;5.82;;
17253;SDS011;32542;52.832;13.816;2022-12-11T02:03:25;9.05;;;6.07;;
17253;SDS011;32542;52.832;13.816;2022-12-11T02:06:33;7.97;;;5.85;;
17253;SDS011;32542;52.832;13.816;2022-12-11T02:09:39;10.35;;;6.70;;
17253;SDS011;32542;52.832;13.816;2022-12-11T02:12:48;8.80;;;6.50;;
17253;SDS011;32542;52.832;13.816;2022-12-11T02:15:59;9.73;;;6.32;;
17253;SDS011;32542;52.832;13.816;2022-12-11T02:19:17;11.52;;;7.03;;
17253;SDS011;32542;52.832;13.816;2022-12-11T02:22:35;9.18;;;6.07;;
17253;SDS011;32542;52.832;13.816;2022-12-11T02:25:56;9.38;;;6.10;;
17253;SDS011;32542;52.832;13.816;2022-12-11T02:29:14;9.35;;;6.65;;
17253;SDS011;32542;52.832;13.816;2022-12-11T02:32:24;9.00;;;5.78;;
17253;SDS011;32542;52.832;13.816;2022-12-11T02:35:30;7.78;;;5.65;;
17253;SDS011;32542;52.832;13.816;2022-12-11T02:38:37;9.25;;;5.97;;
17253;SDS011;32542;52.832;13.816;2022-12-11T02:41:45;8.68;;;6.20;;
17253;SDS011;32542;52.832;13.816;2022-12-11T02:44:52;9.68;;;6.20;;
17253;SDS011;32542;52.832;13.816;2022-12-11T02:47:58;9.60;;;6.20;;
17253;SDS011;32542;52.832;13.816;2022-12-11T02:51:04;8.20;;;5.90;;
17253;SDS011;32542;52.832;13.816;2022-12-11T02:54:11;7.53;;;5.80;;
17253;SDS011;32542;52.832;13.816;2022-12-11T02:57:20;7.15;;;5.55;;
17253;SDS011;32542;52.832;13.816;2022-12-11T03:00:30;8.35;;;5.82;;
17253;SDS011;32542;52.832;13.816;2022-12-11T03:03:34;8.13;;;5.78;;
17253;SDS011;32542;52.832;13.816;2022-12-11T03:06:39;8.00;;;5.90;;
17253;SDS011;32542;52.832;13.816;2022-12-11T03:09:45;9.18;;;6.13;;
17253;SDS011;32542;52.832;13.816;2022-12-11T03:12:51;9.57;;;5.72;;
17253;SDS011;32542;52.832;13.816;2022-12-11T03:16:02;8.05;;;5.88;;
17253;SDS011;32542;52.832;13.816;2022-12-11T03:19:14;9.70;;;6.28;;
17253;SDS011;32542;52.832;13.816;2022-12-11T03:22:26;7.55;;;5.25;;
17253;SDS011;32542;52.832;13.816;2022-12-11T03:25:37;7.35;;;5.45;;
17253;SDS011;32542;52.832;13.816;2022-12-11T03:28:49;8.50;;;5.72;;
17253;SDS011;32542;52.832;13.816;2022-12-11T03:31:58;7.60;;;5.25;;
17253;SDS011;32542;52.832;13.816;2022-12-11T03:35:07;6.85;;;5.28;;
17253;SDS011;32542;52.832;13.816;2022-12-11T03:38:16;7.55;;;5.13;;
17253;SDS011;32542;52.832;13.816;2022-12-11T03:41:23;7.05;;;5.57;;
17253;SDS011;32542;52.832;13.816;2022-12-11T03:44:28;9.27;;;5.82;;
17253;SDS011;32542;52.832;13.816;2022-12-11T03:47:34;7.15;;;5.13;;
17253;SDS011;32542;52.832;13.816;2022-12-11T03:50:40;8.45;;;5.32;;
17253;SDS011;32542;52.832;13.816;2022-12-11T03:53:43;7.45;;;5.50;;
17253;SDS011;32542;52.832;13.816;2022-12-11T03:56:49;6.88;;;5.00;;
17253;SDS011;32542;52.832;13.816;2022-12-11T03:59:55;8.52;;;5.07;;
17253;SDS011;32542;52.832;13.816;2022-12-11T04:03:00;7.88;;;5.40;;
17253;SDS011;32542;52.832;13.816;2022-12-11T04:06:16;7.05;;;4.93;;
17253;SDS011;32542;52.832;13.816;2022-12-11T04:09:19;7.13;;;5.18;;
17253;SDS011;32542;52.832;13.816;2022-12-11T04:12:22;6.50;;;5.60;;
17253;SDS011;32542;52.832;13.816;2022-12-11T04:15:25;7.38;;;5.00;;
17253;SDS011;32542;52.832;13.816;2022-12-11T04:18:29;7.63;;;5.03;;
17253;SDS011;32542;52.832;13.816;2022-12-11T04:21:50;7.03;;;5.07;;
17253;SDS011;32542;52.832;13.816;2022-12-11T04:25:10;7.30;;;5.30;;
17253;SDS011;32542;52.832;13.816;2022-12-11T04:28:14;8.48;;;4.88;;
17253;SDS011;32542;52.832;13.816;2022-12-11T04:31:18;7.82;;;4.63;;
17253;SDS011;32542;52.832;13.816;2022-12-11T04:34:24;6.32;;;4.32;;
17253;SDS011;32542;52.832;13.816;2022-12-11T04:37:27;6.50;;;4.70;;
17253;SDS011;32542;52.832;13.816;2022-12-11T04:40:30;5.68;;;4.30;;
17253;SDS011;32542;52.832;13.816;2022-12-11T04:43:33;7.65;;;4.72;;
17253;SDS011;32542;52.832;13.816;2022-12-11T04:46:36;7.45;;;4.90;;
17253;SDS011;32542;52.832;13.816;2022-12-11T04:49:41;8.50;;;4.68;;
17253;SDS011;32542;52.832;13.816;2022-12-11T04:52:44;6.10;;;4.55;;
17253;SDS011;32542;52.832;13.816;2022-12-11T04:55:47;7.40;;;5.10;;
17253;SDS011;32542;52.832;13.816;2022-12-11T04:58:50;6.13;;;4.72;;
17253;SDS011;32542;52.832;13.816;2022-12-11T05:01:53;7.32;;;5.07;;
17253;SDS011;32542;52.832;13.816;2022-12-11T05:04:57;7.32;;;4.85;;
17253;SDS011;32542;52.832;13.816;2022-12-11T05:08:00;6.38;;;4.57;;
17253;SDS011;32542;52.832;13.816;2022-12-11T05:11:04;6.28;;;4.50;;
17253;SDS011;32542;52.832;13.816;2022-12-11T05:14:08;6.47;;;4.40;;
17253;SDS011;32542;52.832;13.816;2022-12-11T05:17:11;7.15;;;4.82;;
17253;SDS011;32542;52.832;13.816;2022-12-11T05:20:16;7.60;;;4.57;;
17253;SDS011;32542;52.832;13.816;2022-12-11T05:23:19;5.85;;;4.50;;
17253;SDS011;32542;52.832;13.816;2022-12-11T05:26:22;5.63;;;4.15;;
17253;SDS011;32542;52.832;13.816;2022-12-11T05:29:25;6.25;;;4.30;;
17253;SDS011;32542;52.832;13.816;2022-12-11T05:32:28;6.30;;;4.70;;
17253;SDS011;32542;52.832;13.816;2022-12-11T05:35:33;6.68;;;4.65;;
17253;SDS011;32542;52.832;13.816;2022-12-11T05:38:36;6.57;;;4.13;;
17253;SDS011;32542;52.832;13.816;2022-12-11T05:41:39;6.47;;;4.47;;
17253;SDS011;32542;52.832;13.816;2022-12-11T05:44:42;6.10;;;4.55;;
17253;SDS011;32542;52.832;13.816;2022-12-11T05:47:45;6.05;;;4.70;;
17253;SDS011;32542;52.832;13.816;2022-12-11T05:50:59;5.78;;;4.50;;
17253;SDS011;32542;52.832;13.816;2022-12-11T05:54:03;5.95;;;4.20;;
17253;SDS011;32542;52.832;13.816;2022-12-11T05:57:06;3.85;;;3.42;;
17253;SDS011;32542;52.832;13.816;2022-12-11T06:00:10;4.43;;;3.95;;
17253;SDS011;32542;52.832;13.816;2022-12-11T06:03:14;6.28;;;4.35;;
17253;SDS011;32542;52.832;13.816;2022-12-11T06:06:19;5.05;;;3.72;;
17253;SDS011;32542;52.832;13.816;2022-12-11T06:09:22;4.85;;;4.28;;
17253;SDS011;32542;52.832;13.816;2022-12-11T06:12:25;6.57;;;4.72;;
17253;SDS011;32542;52.832;13.816;2022-12-11T06:15:28;5.85;;;4.18;;
17253;SDS011;32542;52.832;13.816;2022-12-11T06:18:34;5.47;;;3.92;;
17253;SDS011;32542;52.832;13.816;2022-12-11T06:21:39;5.50;;;4.28;;
17253;SDS011;32542;52.832;13.816;2022-12-11T06:24:42;5.43;;;3.90;;
17253;SDS011;32542;52.832;13.816;2022-12-11T06:27:45;5.85;;;4.13;;
17253;SDS011;32542;52.832;13.816;2022-12-11T06:30:48;6.57;;;3.72;;
17253;SDS011;32542;52.832;13.816;2022-12-11T06:33:51;6.05;;;4.10;;
17253;SDS011;32542;52.832;13.816;2022-12-11T06:36:56;5.85;;;4.10;;
17253;SDS011;32542;52.832;13.816;2022-12-11T06:39:59;5.57;;;3.72;;
17253;SDS011;32542;52.832;13.816;2022-12-11T06:43:02;5.15;;;4.00;;
17253;SDS011;32542;52.832;13.816;2022-12-11T06:46:05;5.18;;;3.67;;
17253;SDS011;32542;52.832;13.816;2022-12-11T06:49:09;4.90;;;3.80;;
17253;SDS011;32542;52.832;13.816;2022-12-11T06:52:14;5.10;;;3.78;;
17253;SDS011;32542;52.832;13.816;2022-12-11T06:55:19;4.90;;;3.90;;
17253;SDS011;32542;52.832;13.816;2022-12-11T06:58:22;5.03;;;3.97;;
17253;SDS011;32542;52.832;13.816;2022-12-11T07:01:25;5.07;;;4.03;;
17253;SDS011;32542;52.832;13.816;2022-12-11T07:04:29;4.45;;;3.60;;
17253;SDS011;32542;52.832;13.816;2022-12-11T07:07:34;5.35;;;4.05;;
17253;SDS011;32542;52.832;13.816;2022-12-11T07:10:37;3.92;;;3.35;;
17253;SDS011;32542;52.832;13.816;2022-12-11T07:13:41;4.53;;;3.88;;
17253;SDS011;32542;52.832;13.816;2022-12-11T07:16:44;5.20;;;3.83;;
17253;SDS011;32542;52.832;13.816;2022-12-11T07:19:47;5.65;;;3.95;;
17253;SDS011;32542;52.832;13.816;2022-12-11T07:22:52;4.13;;;3.20;;
17253;SDS011;32542;52.832;13.816;2022-12-11T07:25:55;4.63;;;3.50;;
17253;SDS011;32542;52.832;13.816;2022-12-11T07:28:59;4.15;;;3.72;;
17253;SDS011;32542;52.832;13.816;2022-12-11T07:32:02;4.90;;;3.67;;
17253;SDS011;32542;52.832;13.816;2022-12-11T07:35:06;4.55;;;3.60;;
17253;SDS011;32542;52.832;13.816;2022-12-11T07:38:11;3.95;;;3.40;;
17253;SDS011;32542;52.832;13.816;2022-12-11T07:41:15;5.40;;;4.00;;
17253;SDS011;32542;52.832;13.816;2022-12-11T07:44:26;4.78;;;3.67;;
17253;SDS011;32542;52.832;13.816;2022-12-11T07:47:29;4.82;;;3.55;;
17253;SDS011;32542;52.832;13.816;2022-12-11T07:50:32;4.82;;;3.60;;
17253;SDS011;32542;52.832;13.816;2022-12-11T07:53:44;4.88;;;3.65;;
17253;SDS011;32542;52.832;13.816;2022-12-11T07:56:49;4.47;;;3.60;;
17253;SDS011;32542;52.832;13.816;2022-12-11T07:59:54;4.28;;;3.42;;
17253;SDS011;32542;52.832;13.816;2022-12-11T08:02:57;4.80;;;3.40;;
17253;SDS011;32542;52.832;13.816;2022-12-11T08:06:00;4.75;;;3.70;;
17253;SDS011;32542;52.832;13.816;2022-12-11T08:09:05;5.00;;;3.60;;
17253;SDS011;32542;52.832;13.816;2022-12-11T08:12:09;4.50;;;3.38;;
17253;SDS011;32542;52.832;13.816;2022-12-11T08:15:12;4.30;;;3.75;;
17253;SDS011;32542;52.832;13.816;2022-12-11T08:18:15;4.63;;;3.13;;
17253;SDS011;32542;52.832;13.816;2022-12-11T08:21:20;4.45;;;3.55;;
17253;SDS011;32542;52.832;13.816;2022-12-11T08:24:25;4.20;;;3.30;;
17253;SDS011;32542;52.832;13.816;2022-12-11T08:27:28;4.38;;;3.50;;
17253;SDS011;32542;52.832;13.816;2022-12-11T08:30:32;3.85;;;3.22;;
17253;SDS011;32542;52.832;13.816;2022-12-11T08:33:35;4.05;;;3.40;;
17253;SDS011;32542;52.832;13.816;2022-12-11T08:36:39;5.07;;;3.30;;
17253;SDS011;32542;52.832;13.816;2022-12-11T08:39:44;4.75;;;3.80;;
17253;SDS011;32542;52.832;13.816;2022-12-11T08:42:47;5.22;;;3.30;;
17253;SDS011;32542;52.832;13.816;2022-12-11T08:45:50;4.35;;;3.40;;
17253;SDS011;32542;52.832;13.816;2022-12-11T08:48:53;5.22;;;3.50;;
17253;SDS011;32542;52.832;13.816;2022-12-11T08:51:57;7.68;;;3.75;;
17253;SDS011;32542;52.832;13.816;2022-12-11T08:55:01;5.35;;;3.30;;
17253;SDS011;32542;52.832;13.816;2022-12-11T08:58:04;5.38;;;3.70;;
17253;SDS011;32542;52.832;13.816;2022-12-11T09:01:08;5.88;;;3.80;;
17253;SDS011;32542;52.832;13.816;2022-12-11T09:04:12;5.25;;;4.07;;
17253;SDS011;32542;52.832;13.816;2022-12-11T09:07:16;4.75;;;3.72;;
17253;SDS011;32542;52.832;13.816;2022-12-11T09:10:20;5.85;;;3.95;;
17253;SDS011;32542;52.832;13.816;2022-12-11T09:13:23;4.30;;;3.47;;
17253;SDS011;32542;52.832;13.816;2022-12-11T09:16:27;15.50;;;4.63;;
17253;SDS011;32542;52.832;13.816;2022-12-11T09:19:30;16.35;;;7.15;;
17253;SDS011;32542;52.832;13.816;2022-12-11T09:22:33;7.95;;;5.80;;
17253;SDS011;32542;52.832;13.816;2022-12-11T09:25:39;8.98;;;4.72;;
17253;SDS011;32542;52.832;13.816;2022-12-11T09:28:43;7.05;;;4.40;;
17253;SDS011;32542;52.832;13.816;2022-12-11T09:31:47;8.85;;;4.63;;
17253;SDS011;32542;52.832;13.816;2022-12-11T09:34:50;10.18;;;4.47;;
17253;SDS011;32542;52.832;13.816;2022-12-11T09:37:53;6.68;;;4.18;;
17253;SDS011;32542;52.832;13.816;2022-12-11T09:40:58;7.00;;;4.45;;
17253;SDS011;32542;52.832;13.816;2022-12-11T09:44:05;8.02;;;4.65;;
17253;SDS011;32542;52.832;13.816;2022-12-11T09:47:22;6.82;;;4.05;;
17253;SDS011;32542;52.832;13.816;2022-12-11T09:50:29;5.70;;;3.75;;
17253;SDS011;32542;52.832;13.816;2022-12-11T09:53:35;6.97;;;3.83;;
17253;SDS011;32542;52.832;13.816;2022-12-11T09:56:41;5.95;;;3.85;;
17253;SDS011;32542;52.832;13.816;2022-12-11T09:59:50;7.72;;;3.80;;
17253;SDS011;32542;52.832;13.816;2022-12-11T10:06:37;10.45;;;3.70;;
17253;SDS011;32542;52.832;13.816;2022-12-11T10:09:47;6.97;;;3.58;;
17253;SDS011;32542;52.832;13.816;2022-12-11T10:12:56;14.90;;;3.95;;
17253;SDS011;32542;52.832;13.816;2022-12-11T10:16:10;9.98;;;3.92;;
17253;SDS011;32542;52.832;13.816;2022-12-11T10:19:21;8.60;;;4.45;;
17253;SDS011;32542;52.832;13.816;2022-12-11T10:22:29;33.08;;;4.47;;
17253;SDS011;32542;52.832;13.816;2022-12-11T10:25:34;18.23;;;4.63;;
17253;SDS011;32542;52.832;13.816;2022-12-11T10:28:40;12.75;;;4.22;;
17253;SDS011;32542;52.832;13.816;2022-12-11T10:31:45;25.52;;;5.25;;
17253;SDS011;32542;52.832;13.816;2022-12-11T10:34:54;20.42;;;4.60;;
17253;SDS011;32542;52.832;13.816;2022-12-11T10:38:08;23.88;;;4.93;;
17253;SDS011;32542;52.832;13.816;2022-12-11T10:41:16;29.67;;;5.07;;
17253;SDS011;32542;52.832;13.816;2022-12-11T10:44:23;21.25;;;4.90;;
17253;SDS011;32542;52.832;13.816;2022-12-11T10:47:28;22.08;;;5.00;;
17253;SDS011;32542;52.832;13.816;2022-12-11T10:50:33;19.38;;;4.50;;
17253;SDS011;32542;52.832;13.816;2022-12-11T10:53:37;17.17;;;4.40;;
17253;SDS011;32542;52.832;13.816;2022-12-11T10:56:40;21.85;;;3.88;;
17253;SDS011;32542;52.832;13.816;2022-12-11T10:59:49;13.95;;;3.83;;
17253;SDS011;32542;52.832;13.816;2022-12-11T11:02:52;11.60;;;4.22;;
17253;SDS011;32542;52.832;13.816;2022-12-11T11:06:04;18.88;;;4.30;;
17253;SDS011;32542;52.832;13.816;2022-12-11T11:09:26;11.55;;;4.78;;
17253;SDS011;32542;52.832;13.816;2022-12-11T11:12:35;16.55;;;3.97;;
17253;SDS011;32542;52.832;13.816;2022-12-11T11:15:42;17.55;;;4.65;;
17253;SDS011;32542;52.832;13.816;2022-12-11T11:18:50;15.60;;;4.47;;
17253;SDS011;32542;52.832;13.816;2022-12-11T11:21:56;10.60;;;4.10;;
17253;SDS011;32542;52.832;13.816;2022-12-11T11:25:01;19.15;;;4.68;;
17253;SDS011;32542;52.832;13.816;2022-12-11T11:28:06;17.08;;;4.40;;
17253;SDS011;32542;52.832;13.816;2022-12-11T11:31:19;17.50;;;4.38;;
17253;SDS011;32542;52.832;13.816;2022-12-11T11:34:31;16.13;;;5.20;;
17253;SDS011;32542;52.832;13.816;2022-12-11T11:37:34;11.45;;;4.00;;
17253;SDS011;32542;52.832;13.816;2022-12-11T11:40:40;12.93;;;3.67;;
17253;SDS011;32542;52.832;13.816;2022-12-11T11:43:46;11.18;;;3.88;;
17253;SDS011;32542;52.832;13.816;2022-12-11T11:46:55;12.73;;;3.78;;
17253;SDS011;32542;52.832;13.816;2022-12-11T11:50:03;10.85;;;4.15;;
17253;SDS011;32542;52.832;13.816;2022-12-11T11:53:11;13.63;;;3.92;;
17253;SDS011;32542;52.832;13.816;2022-12-11T11:56:21;12.45;;;3.80;;
17253;SDS011;32542;52.832;13.816;2022-12-11T11:59:29;13.32;;;4.15;;
17253;SDS011;32542;52.832;13.816;2022-12-11T12:02:36;7.82;;;3.88;;
17253;SDS011;32542;52.832;13.816;2022-12-11T12:05:42;10.90;;;4.50;;
17253;SDS011;32542;52.832;13.816;2022-12-11T12:08:54;12.60;;;3.88;;
17253;SDS011;32542;52.832;13.816;2022-12-11T12:12:07;16.10;;;4.25;;
17253;SDS011;32542;52.832;13.816;2022-12-11T12:15:28;8.98;;;3.38;;
17253;SDS011;32542;52.832;13.816;2022-12-11T12:18:40;9.30;;;4.13;;
17253;SDS011;32542;52.832;13.816;2022-12-11T12:21:54;8.95;;;3.85;;
17253;SDS011;32542;52.832;13.816;2022-12-11T12:24:59;7.55;;;4.03;;
17253;SDS011;32542;52.832;13.816;2022-12-11T12:28:12;11.40;;;3.90;;
17253;SDS011;32542;52.832;13.816;2022-12-11T12:31:31;11.50;;;4.00;;
17253;SDS011;32542;52.832;13.816;2022-12-11T12:34:54;6.07;;;3.50;;
17253;SDS011;32542;52.832;13.816;2022-12-11T12:38:05;11.52;;;3.80;;
17253;SDS011;32542;52.832;13.816;2022-12-11T12:41:16;9.88;;;3.83;;
17253;SDS011;32542;52.832;13.816;2022-12-11T12:44:23;6.70;;;3.97;;
17253;SDS011;32542;52.832;13.816;2022-12-11T12:47:29;8.73;;;4.40;;
17253;SDS011;32542;52.832;13.816;2022-12-11T12:50:39;9.35;;;4.10;;
17253;SDS011;32542;52.832;13.816;2022-12-11T12:53:47;11.77;;;5.13;;
17253;SDS011;32542;52.832;13.816;2022-12-11T12:56:53;9.70;;;4.55;;
17253;SDS011;32542;52.832;13.816;2022-12-11T12:59:57;7.05;;;4.80;;
17253;SDS011;32542;52.832;13.816;2022-12-11T13:03:01;11.48;;;4.05;;
17253;SDS011;32542;52.832;13.816;2022-12-11T13:06:16;10.85;;;4.68;;
17253;SDS011;32542;52.832;13.816;2022-12-11T13:09:31;6.18;;;3.65;;
17253;SDS011;32542;52.832;13.816;2022-12-11T13:12:41;10.45;;;3.80;;
17253;SDS011;32542;52.832;13.816;2022-12-11T13:15:45;8.57;;;3.85;;
17253;SDS011;32542;52.832;13.816;2022-12-11T13:18:48;8.20;;;3.80;;
17253;SDS011;32542;52.832;13.816;2022-12-11T13:21:56;7.53;;;4.13;;
17253;SDS011;32542;52.832;13.816;2022-12-11T13:25:01;6.75;;;4.03;;
17253;SDS011;32542;52.832;13.816;2022-12-11T13:28:26;6.85;;;3.70;;
17253;SDS011;32542;52.832;13.816;2022-12-11T13:31:33;8.75;;;3.55;;
17253;SDS011;32542;52.832;13.816;2022-12-11T13:34:38;9.13;;;3.70;;
17253;SDS011;32542;52.832;13.816;2022-12-11T13:37:45;5.78;;;3.25;;
17253;SDS011;32542;52.832;13.816;2022-12-11T13:40:52;6.13;;;3.53;;
17253;SDS011;32542;52.832;13.816;2022-12-11T13:43:58;7.32;;;3.60;;
17253;SDS011;32542;52.832;13.816;2022-12-11T13:47:01;6.03;;;3.65;;
17253;SDS011;32542;52.832;13.816;2022-12-11T13:50:11;8.52;;;4.18;;
17253;SDS011;32542;52.832;13.816;2022-12-11T13:53:19;6.38;;;3.15;;
17253;SDS011;32542;52.832;13.816;2022-12-11T13:56:22;5.15;;;3.50;;
17253;SDS011;32542;52.832;13.816;2022-12-11T13:59:27;6.35;;;3.22;;
17253;SDS011;32542;52.832;13.816;2022-12-11T14:02:32;5.80;;;3.30;;
17253;SDS011;32542;52.832;13.816;2022-12-11T14:05:37;5.72;;;3.30;;
17253;SDS011;32542;52.832;13.816;2022-12-11T14:08:44;5.32;;;3.30;;
17253;SDS011;32542;52.832;13.816;2022-12-11T14:11:51;5.07;;;3.40;;
17253;SDS011;32542;52.832;13.816;2022-12-11T14:14:58;9.43;;;3.85;;
17253;SDS011;32542;52.832;13.816;2022-12-11T14:18:03;5.15;;;3.22;;
17253;SDS011;32542;52.832;13.816;2022-12-11T14:21:16;5.63;;;3.58;;
17253;SDS011;32542;52.832;13.816;2022-12-11T14:24:22;5.53;;;3.22;;
17253;SDS011;32542;52.832;13.816;2022-12-11T14:27:26;5.47;;;3.17;;
17253;SDS011;32542;52.832;13.816;2022-12-11T14:30:30;5.13;;;3.33;;
17253;SDS011;32542;52.832;13.816;2022-12-11T14:33:39;4.53;;;3.30;;
17253;SDS011;32542;52.832;13.816;2022-12-11T14:36:44;6.70;;;3.88;;
17253;SDS011;32542;52.832;13.816;2022-12-11T14:39:53;7.47;;;3.85;;
17253;SDS011;32542;52.832;13.816;2022-12-11T14:42:59;5.20;;;3.42;;
17253;SDS011;32542;52.832;13.816;2022-12-11T14:46:09;6.00;;;3.50;;
17253;SDS011;32542;52.832;13.816;2022-12-11T14:49:20;4.57;;;2.72;;
17253;SDS011;32542;52.832;13.816;2022-12-11T14:52:28;5.13;;;2.90;;
17253;SDS011;32542;52.832;13.816;2022-12-11T14:55:36;5.10;;;2.97;;
17253;SDS011;32542;52.832;13.816;2022-12-11T14:58:42;5.15;;;3.13;;
17253;SDS011;32542;52.832;13.816;2022-12-11T15:01:56;4.90;;;3.22;;
17253;SDS011;32542;52.832;13.816;2022-12-11T15:05:13;5.75;;;3.30;;
17253;SDS011;32542;52.832;13.816;2022-12-11T15:08:19;3.83;;;2.88;;
17253;SDS011;32542;52.832;13.816;2022-12-11T15:11:29;4.22;;;2.78;;
17253;SDS011;32542;52.832;13.816;2022-12-11T15:14:33;4.28;;;2.90;;
17253;SDS011;32542;52.832;13.816;2022-12-11T15:17:36;5.00;;;2.95;;
17253;SDS011;32542;52.832;13.816;2022-12-11T15:20:39;7.45;;;3.97;;
17253;SDS011;32542;52.832;13.816;2022-12-11T15:23:46;23.42;;;4.80;;
17253;SDS011;32542;52.832;13.816;2022-12-11T15:26:56;9.40;;;5.10;;
17253;SDS011;32542;52.832;13.816;2022-12-11T15:30:01;12.55;;;4.32;;
17253;SDS011;32542;52.832;13.816;2022-12-11T15:33:18;15.70;;;3.80;;
17253;SDS011;32542;52.832;13.816;2022-12-11T15:36:23;17.00;;;4.13;;
17253;SDS011;32542;52.832;13.816;2022-12-11T15:39:28;10.77;;;4.03;;
17253;SDS011;32542;52.832;13.816;2022-12-11T15:42:33;15.48;;;3.90;;
17253;SDS011;32542;52.832;13.816;2022-12-11T15:45:40;9.70;;;4.05;;
17253;SDS011;32542;52.832;13.816;2022-12-11T15:48:43;14.02;;;4.05;;
17253;SDS011;32542;52.832;13.816;2022-12-11T15:51:47;11.27;;;3.60;;
17253;SDS011;32542;52.832;13.816;2022-12-11T15:54:50;6.80;;;3.60;;
17253;SDS011;32542;52.832;13.816;2022-12-11T15:57:55;12.70;;;3.58;;
17253;SDS011;32542;52.832;13.816;2022-12-11T16:01:01;14.00;;;3.80;;
17253;SDS011;32542;52.832;13.816;2022-12-11T16:04:05;10.13;;;3.85;;
17253;SDS011;32542;52.832;13.816;2022-12-11T16:07:11;8.30;;;3.35;;
17253;SDS011;32542;52.832;13.816;2022-12-11T16:10:18;15.30;;;3.78;;
17253;SDS011;32542;52.832;13.816;2022-12-11T16:13:24;12.52;;;4.00;;
17253;SDS011;32542;52.832;13.816;2022-12-11T16:16:27;10.13;;;3.78;;
17253;SDS011;32542;52.832;13.816;2022-12-11T16:19:30;10.50;;;4.05;;
17253;SDS011;32542;52.832;13.816;2022-12-11T16:22:34;9.15;;;3.22;;
17253;SDS011;32542;52.832;13.816;2022-12-11T16:25:37;11.18;;;4.03;;
17253;SDS011;32542;52.832;13.816;2022-12-11T16:28:43;12.55;;;3.53;;
17253;SDS011;32542;52.832;13.816;2022-12-11T16:31:46;6.75;;;3.50;;
17253;SDS011;32542;52.832;13.816;2022-12-11T16:34:49;8.10;;;3.47;;
17253;SDS011;32542;52.832;13.816;2022-12-11T16:37:52;7.30;;;3.15;;
17253;SDS011;32542;52.832;13.816;2022-12-11T16:40:59;8.50;;;3.58;;
17253;SDS011;32542;52.832;13.816;2022-12-11T16:44:04;7.93;;;3.30;;
17253;SDS011;32542;52.832;13.816;2022-12-11T16:47:07;6.97;;;3.25;;
17253;SDS011;32542;52.832;13.816;2022-12-11T16:50:10;7.72;;;3.13;;
17253;SDS011;32542;52.832;13.816;2022-12-11T16:53:15;14.50;;;3.33;;
17253;SDS011;32542;52.832;13.816;2022-12-11T16:56:18;5.20;;;3.10;;
17253;SDS011;32542;52.832;13.816;2022-12-11T16:59:22;9.80;;;3.40;;
17253;SDS011;32542;52.832;13.816;2022-12-11T17:02:25;5.55;;;3.20;;
17253;SDS011;32542;52.832;13.816;2022-12-11T17:05:28;5.88;;;3.35;;
17253;SDS011;32542;52.832;13.816;2022-12-11T17:08:32;7.90;;;3.25;;
17253;SDS011;32542;52.832;13.816;2022-12-11T17:11:35;5.57;;;3.33;;
17253;SDS011;32542;52.832;13.816;2022-12-11T17:14:39;6.22;;;3.63;;
17253;SDS011;32542;52.832;13.816;2022-12-11T17:17:42;5.20;;;3.00;;
17253;SDS011;32542;52.832;13.816;2022-12-11T17:20:45;7.15;;;3.15;;
17253;SDS011;32542;52.832;13.816;2022-12-11T17:23:48;7.07;;;3.50;;
17253;SDS011;32542;52.832;13.816;2022-12-11T17:26:53;7.82;;;3.33;;
17253;SDS011;32542;52.832;13.816;2022-12-11T17:29:58;8.65;;;4.00;;
17253;SDS011;32542;52.832;13.816;2022-12-11T17:33:01;9.07;;;3.30;;
17253;SDS011;32542;52.832;13.816;2022-12-11T17:36:05;6.05;;;3.13;;
17253;SDS011;32542;52.832;13.816;2022-12-11T17:39:09;5.53;;;3.00;;
17253;SDS011;32542;52.832;13.816;2022-12-11T17:42:12;10.50;;;3.45;;
17253;SDS011;32542;52.832;13.816;2022-12-11T17:45:16;11.10;;;3.50;;
17253;SDS011;32542;52.832;13.816;2022-12-11T17:48:19;8.82;;;3.92;;
17253;SDS011;32542;52.832;13.816;2022-12-11T17:51:23;8.75;;;3.28;;
17253;SDS011;32542;52.832;13.816;2022-12-11T17:54:26;7.63;;;2.95;;
17253;SDS011;32542;52.832;13.816;2022-12-11T17:57:30;6.65;;;3.50;;
17253;SDS011;32542;52.832;13.816;2022-12-11T18:00:35;7.38;;;3.35;;
17253;SDS011;32542;52.832;13.816;2022-12-11T18:03:40;7.63;;;3.00;;
17253;SDS011;32542;52.832;13.816;2022-12-11T18:06:43;8.00;;;4.43;;
17253;SDS011;32542;52.832;13.816;2022-12-11T18:09:47;12.82;;;3.53;;
17253;SDS011;32542;52.832;13.816;2022-12-11T18:12:50;9.25;;;3.35;;
17253;SDS011;32542;52.832;13.816;2022-12-11T18:15:59;13.35;;;3.65;;
17253;SDS011;32542;52.832;13.816;2022-12-11T18:19:04;6.97;;;2.83;;
17253;SDS011;32542;52.832;13.816;2022-12-11T18:22:08;14.18;;;3.55;;
17253;SDS011;32542;52.832;13.816;2022-12-11T18:25:11;6.22;;;3.33;;